createdAt,value
2023-01-12T00:02:23.553Z,100371.48
2023-01-12T00:04:51.470Z,100377.25
2023-01-12T00:07:20.602Z,100382.41
2023-01-12T00:09:49.162Z,100384.15
2023-01-12T00:12:17.049Z,100384.98
2023-01-12T00:14:44.857Z,100386.61
2023-01-12T00:17:16.841Z,100386.65
2023-01-12T00:19:44.628Z,100387.20
2023-01-12T00:22:12.733Z,100395.38
2023-01-12T00:24:44.144Z,100401.55
2023-01-12T00:27:15.243Z,100398.96
2023-01-12T00:29:44.186Z,100404.63
2023-01-12T00:32:15.501Z,100402.64
2023-01-12T00:34:43.627Z,100406.92
2023-01-12T00:37:11.933Z,100413.95
2023-01-12T00:39:43.012Z,100416.94
2023-01-12T00:42:32.178Z,100418.79
2023-01-12T00:45:18.830Z,100422.45
2023-01-12T00:47:46.983Z,100424.52
2023-01-12T00:50:15.351Z,100431.45
2023-01-12T00:52:43.640Z,100435.34
2023-01-12T00:55:11.753Z,100443.05
2023-01-12T00:57:40.229Z,100447.47
2023-01-12T01:00:09.055Z,100451.39
2023-01-12T01:02:37.480Z,100453.28
2023-01-12T01:05:05.700Z,100450.77
2023-01-12T01:07:34.877Z,100452.02
2023-01-12T01:10:03.114Z,100454.41
2023-01-12T01:12:31.252Z,100455.58
2023-01-12T01:14:59.097Z,100455.27
2023-01-12T01:17:28.978Z,100452.78
2023-01-12T01:19:56.879Z,100449.94
2023-01-12T01:22:24.727Z,100456.08
2023-01-12T01:24:52.724Z,100459.92
2023-01-12T01:27:20.594Z,100466.64
2023-01-12T01:29:48.781Z,100470.48
2023-01-12T01:32:16.897Z,100477.05
2023-01-12T01:34:46.466Z,100480.20
2023-01-12T01:37:14.510Z,100475.96
2023-01-12T01:39:42.674Z,100471.67
2023-01-12T01:42:28.237Z,100469.83
2023-01-12T01:44:58.745Z,100473.05
2023-01-12T01:47:36.740Z,100467.65
2023-01-12T01:50:19.322Z,100465.14
2023-01-12T01:52:52.479Z,100462.68
2023-01-12T01:55:23.968Z,100465.00
2023-01-12T01:57:54.073Z,100462.92
2023-01-12T02:00:23.339Z,100459.09
2023-01-12T02:02:52.612Z,100461.34
2023-01-12T02:05:23.892Z,100455.91
2023-01-12T02:07:52.981Z,100457.59
2023-01-12T02:10:21.547Z,100461.27
2023-01-12T02:13:08.872Z,100463.23
2023-01-12T02:16:21.316Z,100461.34
2023-01-12T02:19:25.716Z,100458.93
2023-01-12T02:22:23.507Z,100465.76
2023-01-12T02:25:09.600Z,100469.02
2023-01-12T02:28:05.887Z,100465.42
2023-01-12T02:30:52.518Z,100462.63
2023-01-12T02:33:52.857Z,100468.14
2023-01-12T02:36:35.977Z,100470.09
2023-01-12T02:39:39.216Z,100468.67
2023-01-12T02:42:29.237Z,100465.00
2023-01-12T02:45:19.353Z,100469.54
2023-01-12T02:47:53.022Z,100471.10
2023-01-12T02:50:46.345Z,100470.26
2023-01-12T02:53:30.297Z,100464.78
2023-01-12T02:56:04.810Z,100467.78
2023-01-12T02:58:36.868Z,100471.48
2023-01-12T03:01:06.026Z,100471.77
2023-01-12T03:03:35.231Z,100468.30
2023-01-12T03:06:05.868Z,100472.96
2023-01-12T03:08:37.589Z,100474.48
2023-01-12T03:11:16.104Z,100476.14
2023-01-12T03:13:48.240Z,100472.48
2023-01-12T03:16:24.222Z,100474.08
2023-01-12T03:19:09.692Z,100469.89
2023-01-12T03:21:41.029Z,100461.04
2023-01-12T03:24:12.577Z,100465.67
2023-01-12T03:26:47.779Z,100464.77
2023-01-12T03:29:40.923Z,100462.55
2023-01-12T03:32:08.770Z,100458.91
2023-01-12T03:34:37.408Z,100459.05
2023-01-12T03:37:15.056Z,100463.98
2023-01-12T03:40:00.570Z,100465.38
2023-01-12T03:42:36.781Z,100462.55
2023-01-12T03:45:29.055Z,100457.06
2023-01-12T03:48:08.010Z,100454.02
2023-01-12T03:50:41.707Z,100456.65
2023-01-12T03:53:10.655Z,100464.59
2023-01-12T03:55:39.556Z,100465.48
2023-01-12T03:58:07.479Z,100466.10
2023-01-12T04:00:35.563Z,100469.11
2023-01-12T04:03:09.711Z,100474.34
2023-01-12T04:05:38.619Z,100476.52
2023-01-12T04:08:06.726Z,100472.77
2023-01-12T04:10:34.721Z,100473.67
2023-01-12T04:13:02.554Z,100473.77
2023-01-12T04:15:30.711Z,100469.46
2023-01-12T04:17:58.600Z,100472.17
2023-01-12T04:20:26.369Z,100471.95
2023-01-12T04:22:54.436Z,100475.33
2023-01-12T04:25:23.210Z,100472.06
2023-01-12T04:28:05.001Z,100468.38
2023-01-12T04:30:33.860Z,100463.92
2023-01-12T04:33:08.276Z,100460.91
2023-01-12T04:35:36.773Z,100466.98
2023-01-12T04:38:10.193Z,100468.27
2023-01-12T04:40:38.495Z,100466.96
2023-01-12T04:43:08.757Z,100475.17
2023-01-12T04:45:39.342Z,100483.97
2023-01-12T04:48:11.951Z,100482.59
2023-01-12T04:50:40.823Z,100487.50
2023-01-12T04:53:11.454Z,100475.36
2023-01-12T04:55:41.436Z,100469.95
2023-01-12T04:58:09.943Z,100465.28
2023-01-12T05:00:37.909Z,100455.40
2023-01-12T05:03:11.770Z,100464.07
2023-01-12T05:05:39.714Z,100461.09
2023-01-12T05:08:26.255Z,100462.09
2023-01-12T05:10:56.591Z,100465.70
2023-01-12T05:13:26.652Z,100464.63
2023-01-12T05:15:54.789Z,100468.11
2023-01-12T05:18:23.377Z,100459.42
2023-01-12T05:20:51.157Z,100458.35
2023-01-12T05:23:19.111Z,100456.10
2023-01-12T05:25:49.777Z,100458.91
2023-01-12T05:28:17.576Z,100461.84
2023-01-12T05:30:45.822Z,100456.83
2023-01-12T05:33:16.592Z,100452.78
2023-01-12T05:35:44.376Z,100448.48
2023-01-12T05:38:12.577Z,100455.57
2023-01-12T05:40:40.635Z,100448.11
2023-01-12T05:43:31.419Z,100448.38
2023-01-12T05:46:04.708Z,100451.63
2023-01-12T05:48:33.205Z,100453.13
2023-01-12T05:51:05.152Z,100459.67
2023-01-12T05:53:33.153Z,100463.64
2023-01-12T05:56:08.177Z,100468.16
2023-01-12T05:58:37.276Z,100464.63
2023-01-12T06:01:09.871Z,100468.60
2023-01-12T06:03:37.888Z,100470.52
2023-01-12T06:06:06.270Z,100468.00
2023-01-12T06:08:34.238Z,100466.66
2023-01-12T06:11:04.452Z,100463.61
2023-01-12T06:13:51.507Z,100461.45
2023-01-12T06:16:19.328Z,100459.52
2023-01-12T06:18:47.646Z,100459.11
2023-01-12T06:21:15.766Z,100458.41
2023-01-12T06:23:43.582Z,100452.73
2023-01-12T06:26:11.959Z,100448.44
2023-01-12T06:28:40.759Z,100454.21
2023-01-12T06:31:11.437Z,100456.12
2023-01-12T06:33:40.040Z,100456.09
2023-01-12T06:36:08.199Z,100456.41
2023-01-12T06:38:37.542Z,100458.52
2023-01-12T06:41:33.630Z,100457.39
2023-01-12T06:44:01.690Z,100455.67
2023-01-12T06:46:29.687Z,100452.48
2023-01-12T06:48:58.886Z,100446.77
2023-01-12T06:51:27.156Z,100443.38
2023-01-12T06:53:55.939Z,100442.08
2023-01-12T06:56:24.228Z,100442.08
2023-01-12T06:58:51.997Z,100447.66
2023-01-12T07:01:20.187Z,100443.03
2023-01-12T07:03:48.250Z,100448.81
2023-01-12T07:06:16.802Z,100448.69
2023-01-12T07:08:45.119Z,100450.06
2023-01-12T07:11:15.326Z,100452.71
2023-01-12T07:13:43.112Z,100449.77
2023-01-12T07:16:11.138Z,100447.34
2023-01-12T07:18:39.044Z,100445.98
2023-01-12T07:21:08.831Z,100439.85
2023-01-12T07:23:37.937Z,100437.21
2023-01-12T07:26:05.728Z,100434.83
2023-01-12T07:28:34.461Z,100434.56
2023-01-12T07:31:04.418Z,100441.44
2023-01-12T07:33:32.691Z,100443.71
2023-01-12T07:36:01.927Z,100445.91
2023-01-12T07:38:30.972Z,100447.42
2023-01-12T07:41:02.565Z,100447.60
2023-01-12T07:43:30.666Z,100448.38
2023-01-12T07:45:59.815Z,100447.30
2023-01-12T07:48:27.956Z,100445.91
2023-01-12T07:50:58.872Z,100443.27
2023-01-12T07:53:27.027Z,100441.95
2023-01-12T07:55:55.146Z,100441.02
2023-01-12T07:58:22.903Z,100438.20
2023-01-12T08:00:51.130Z,100433.80
2023-01-12T08:03:19.980Z,100435.36
2023-01-12T08:05:47.882Z,100439.45
2023-01-12T08:08:16.060Z,100437.73
2023-01-12T08:10:45.544Z,100433.02
2023-01-12T08:13:13.843Z,100440.34
2023-01-12T08:15:50.287Z,100438.91
2023-01-12T08:18:25.067Z,100435.95
2023-01-12T08:20:54.643Z,100436.73
2023-01-12T08:23:32.837Z,100433.88
2023-01-12T08:26:04.378Z,100429.63
2023-01-12T08:28:35.842Z,100433.95
2023-01-12T08:31:05.903Z,100436.20
2023-01-12T08:33:34.025Z,100436.83
2023-01-12T08:36:04.353Z,100444.10
2023-01-12T08:38:32.728Z,100442.80
2023-01-12T08:41:19.543Z,100447.31
2023-01-12T08:44:03.270Z,100445.75
2023-01-12T08:46:32.493Z,100450.31
2023-01-12T08:49:01.294Z,100445.97
2023-01-12T08:51:29.253Z,100442.58
2023-01-12T08:53:57.091Z,100447.77
2023-01-12T08:56:25.244Z,100445.63
2023-01-12T08:58:53.420Z,100440.26
2023-01-12T09:01:22.147Z,100444.73
2023-01-12T09:03:50.493Z,100440.17
2023-01-12T09:06:30.336Z,100443.20
2023-01-12T09:09:05.212Z,100439.76
2023-01-12T09:11:33.216Z,100446.92
2023-01-12T09:14:01.972Z,100447.14
2023-01-12T09:16:31.223Z,100443.51
2023-01-12T09:18:59.752Z,100441.59
2023-01-12T09:21:29.290Z,100435.77
2023-01-12T09:23:57.257Z,100433.85
2023-01-12T09:26:34.286Z,100425.83
2023-01-12T09:29:04.384Z,100424.36
2023-01-12T09:31:33.104Z,100420.61
2023-01-12T09:34:01.469Z,100421.39
2023-01-12T09:36:31.713Z,100416.45
2023-01-12T09:38:59.676Z,100418.48
2023-01-12T09:42:06.711Z,100419.59
2023-01-12T09:44:58.635Z,100420.35
2023-01-12T09:47:36.842Z,100417.63
2023-01-12T09:50:12.203Z,100416.23
2023-01-12T09:52:47.759Z,100414.27
2023-01-12T09:55:21.083Z,100420.20
2023-01-12T09:57:56.010Z,100419.56
2023-01-12T10:00:25.021Z,100414.96
2023-01-12T10:03:08.528Z,100409.88
2023-01-12T10:05:42.677Z,100413.77
2023-01-12T10:08:28.211Z,100413.90
2023-01-12T10:11:21.182Z,100406.29
2023-01-12T10:13:54.861Z,100408.96
2023-01-12T10:17:07.586Z,100406.83
2023-01-12T10:19:51.034Z,100400.35
2023-01-12T10:22:39.032Z,100398.28
2023-01-12T10:25:16.463Z,100393.31
2023-01-12T10:27:46.756Z,100397.74
2023-01-12T10:30:25.382Z,100395.95
2023-01-12T10:32:53.396Z,100394.50
2023-01-12T10:35:23.281Z,100386.33
2023-01-12T10:37:52.585Z,100383.16
2023-01-12T10:40:29.720Z,100385.51
2023-01-12T10:43:31.915Z,100383.26
2023-01-12T10:46:12.355Z,100376.64
2023-01-12T10:48:46.069Z,100364.80
2023-01-12T10:51:23.099Z,100354.12
2023-01-12T10:54:10.503Z,100348.18
2023-01-12T10:56:43.248Z,100345.90
2023-01-12T10:59:14.351Z,100332.77
2023-01-12T11:02:06.128Z,100332.58
2023-01-12T11:04:39.029Z,100323.48
2023-01-12T11:07:14.209Z,100312.30
2023-01-12T11:09:43.692Z,100304.64
2023-01-12T11:12:43.581Z,100306.17
2023-01-12T11:15:12.257Z,100303.64
2023-01-12T11:17:58.972Z,100302.78
2023-01-12T11:20:31.156Z,100295.29
2023-01-12T11:23:02.485Z,100289.58
2023-01-12T11:25:34.894Z,100285.06
2023-01-12T11:28:21.377Z,100274.77
2023-01-12T11:30:54.721Z,100273.98
2023-01-12T11:33:34.536Z,100275.90
2023-01-12T11:36:23.832Z,100273.88
2023-01-12T11:38:56.070Z,100268.51
2023-01-12T11:41:34.462Z,100266.98
2023-01-12T11:44:11.793Z,100262.17
2023-01-12T11:46:42.722Z,100263.82
2023-01-12T11:49:25.731Z,100258.63
2023-01-12T11:51:58.537Z,100253.34
2023-01-12T11:54:28.165Z,100245.36
2023-01-12T11:57:08.243Z,100245.92
2023-01-12T11:59:44.067Z,100241.57
2023-01-12T12:02:38.195Z,100244.08
2023-01-12T12:05:10.057Z,100241.10
2023-01-12T12:07:48.599Z,100242.09
2023-01-12T12:10:23.986Z,100242.35
2023-01-12T12:13:07.601Z,100241.94
2023-01-12T12:15:48.994Z,100238.30
2023-01-12T12:18:49.851Z,100235.13
2023-01-12T12:21:21.317Z,100227.45
2023-01-12T12:24:27.490Z,100224.88
2023-01-12T12:27:28.950Z,100223.98
2023-01-12T12:30:26.307Z,100215.77
2023-01-12T12:33:15.577Z,100212.81
2023-01-12T12:36:08.899Z,100203.31
2023-01-12T12:38:42.966Z,100206.55
2023-01-12T12:41:41.413Z,100207.79
2023-01-12T12:44:47.660Z,100206.34
2023-01-12T12:47:34.290Z,100207.23
2023-01-12T12:50:03.972Z,100209.61
2023-01-12T12:52:38.126Z,100207.99
2023-01-12T12:55:09.786Z,100206.99
2023-01-12T12:58:00.605Z,100208.10
2023-01-12T13:00:43.456Z,100208.37
2023-01-12T13:03:11.589Z,100208.15
2023-01-12T13:05:48.263Z,100203.17
2023-01-12T13:08:27.467Z,100207.33
2023-01-12T13:10:57.051Z,100209.27
2023-01-12T13:13:31.419Z,100209.62
2023-01-12T13:16:11.840Z,100205.50
2023-01-12T13:18:48.566Z,100200.36
2023-01-12T13:21:42.428Z,100199.05
2023-01-12T13:24:10.334Z,100193.80
2023-01-12T13:26:41.061Z,100198.52
2023-01-12T13:29:27.397Z,100191.73
2023-01-12T13:32:19.781Z,100194.02
2023-01-12T13:34:47.951Z,100191.46
2023-01-12T13:37:22.917Z,100188.51
2023-01-12T13:40:20.914Z,100182.30
2023-01-12T13:43:09.050Z,100182.54
2023-01-12T13:45:37.754Z,100180.11
2023-01-12T13:48:06.646Z,100179.14
2023-01-12T13:50:35.719Z,100173.77
2023-01-12T13:53:04.542Z,100172.59
2023-01-12T13:55:36.208Z,100171.30
2023-01-12T13:58:26.023Z,100173.64
2023-01-12T14:01:03.570Z,100176.56
2023-01-12T14:04:05.189Z,100173.80
2023-01-12T14:06:42.162Z,100172.27
2023-01-12T14:09:48.493Z,100171.60
2023-01-12T14:12:26.096Z,100171.36
2023-01-12T14:15:15.802Z,100170.17
2023-01-12T14:17:49.901Z,100166.41
2023-01-12T14:20:23.968Z,100163.36
2023-01-12T14:23:19.696Z,100161.38
2023-01-12T14:26:02.961Z,100161.23
2023-01-12T14:28:31.578Z,100159.89
2023-01-12T14:30:59.867Z,100160.17
2023-01-12T14:33:31.871Z,100153.07
2023-01-12T14:36:12.322Z,100147.59
2023-01-12T14:38:41.619Z,100145.69
2023-01-12T14:41:35.327Z,100151.41
2023-01-12T14:44:23.410Z,100147.63
2023-01-12T14:46:53.799Z,100148.78
2023-01-12T14:49:31.076Z,100151.42
2023-01-12T14:52:12.349Z,100150.90
2023-01-12T14:54:40.515Z,100153.71
2023-01-12T14:57:23.416Z,100150.17
2023-01-12T14:59:52.057Z,100146.01
2023-01-12T15:02:33.704Z,100147.14
2023-01-12T15:05:10.926Z,100144.98
2023-01-12T15:07:42.070Z,100142.27
2023-01-12T15:10:09.775Z,100136.70
2023-01-12T15:12:47.556Z,100137.91
2023-01-12T15:15:21.908Z,100134.50
2023-01-12T15:18:12.014Z,100132.17
2023-01-12T15:21:02.131Z,100131.97
2023-01-12T15:23:54.676Z,100129.09
2023-01-12T15:26:22.871Z,100130.77
2023-01-12T15:28:51.002Z,100125.34
2023-01-12T15:31:29.512Z,100126.96
2023-01-12T15:33:58.177Z,100121.84
2023-01-12T15:36:26.239Z,100122.83
2023-01-12T15:38:57.442Z,100122.64
2023-01-12T15:41:47.873Z,100118.61
2023-01-12T15:44:21.830Z,100118.66
2023-01-12T15:46:49.785Z,100116.41
2023-01-12T15:49:17.731Z,100112.25
2023-01-12T15:51:50.351Z,100110.70
2023-01-12T15:54:19.221Z,100109.52
2023-01-12T15:56:48.027Z,100106.79
2023-01-12T15:59:17.013Z,100107.40
2023-01-12T16:01:47.422Z,100105.63
2023-01-12T16:07:12.117Z,100105.20
2023-01-12T16:09:41.339Z,100107.31
2023-01-12T16:12:09.197Z,100106.19
2023-01-12T16:14:37.790Z,100102.77
2023-01-12T16:17:05.723Z,100102.36
2023-01-12T16:19:40.887Z,100098.81
2023-01-12T16:22:21.484Z,100100.95
2023-01-12T16:24:50.807Z,100099.53
2023-01-12T16:27:21.007Z,100102.55
2023-01-12T16:29:49.221Z,100102.92
2023-01-12T16:32:17.760Z,100102.98
2023-01-12T16:34:46.375Z,100102.49
2023-01-12T16:37:15.838Z,100100.31
2023-01-12T16:39:44.779Z,100103.59
2023-01-12T16:42:13.778Z,100104.83
2023-01-12T16:44:42.145Z,100104.79
2023-01-12T16:47:14.847Z,100103.39
2023-01-12T16:49:43.463Z,100104.86
2023-01-12T16:52:14.997Z,100102.92
2023-01-12T16:54:43.841Z,100096.46
2023-01-12T16:57:13.718Z,100092.83
2023-01-12T16:59:42.163Z,100093.11
2023-01-12T17:02:15.637Z,100085.78
2023-01-12T17:04:48.088Z,100084.41
2023-01-12T17:07:16.453Z,100081.07
2023-01-12T17:09:44.621Z,100078.14
2023-01-12T17:12:12.760Z,100079.23
2023-01-12T17:14:41.435Z,100077.20
2023-01-12T17:17:11.162Z,100075.46
2023-01-12T17:19:45.592Z,100079.46
2023-01-12T17:22:14.369Z,100079.77
2023-01-12T17:24:42.857Z,100078.06
2023-01-12T17:27:11.486Z,100077.11
2023-01-12T17:29:39.786Z,100072.04
2023-01-12T17:32:08.398Z,100067.56
2023-01-12T17:34:39.063Z,100067.71
2023-01-12T17:37:10.077Z,100067.42
2023-01-12T17:39:43.453Z,100063.86
2023-01-12T17:42:34.013Z,100061.70
2023-01-12T17:45:02.930Z,100059.70
2023-01-12T17:47:31.465Z,100058.40
2023-01-12T17:49:59.392Z,100061.16
2023-01-12T17:52:27.811Z,100059.75
2023-01-12T17:54:55.787Z,100058.03
2023-01-12T17:57:23.699Z,100057.81
2023-01-12T17:59:52.528Z,100056.81
2023-01-12T18:02:20.657Z,100054.38
2023-01-12T18:04:48.815Z,100056.66
2023-01-12T18:07:17.455Z,100052.38
2023-01-12T18:09:45.468Z,100056.29
2023-01-12T18:12:13.520Z,100051.39
2023-01-12T18:14:41.992Z,100054.45
2023-01-12T18:17:11.361Z,100061.28
2023-01-12T18:19:41.474Z,100060.77
2023-01-12T18:22:11.129Z,100059.05
2023-01-12T18:24:39.244Z,100057.36
2023-01-12T18:27:07.427Z,100056.77
2023-01-12T18:29:35.699Z,100057.91
2023-01-12T18:32:03.740Z,100058.87
2023-01-12T18:34:31.670Z,100056.39
2023-01-12T18:36:59.678Z,100058.19
2023-01-12T18:39:27.548Z,100052.96
2023-01-12T18:42:14.746Z,100051.29
2023-01-12T18:44:42.888Z,100045.36
2023-01-12T18:47:33.599Z,100047.74
2023-01-12T18:50:21.602Z,100046.29
2023-01-12T18:53:08.569Z,100047.98
2023-01-12T18:55:37.640Z,100046.20
2023-01-12T18:58:05.548Z,100048.05
2023-01-12T19:00:33.586Z,100047.44
2023-01-12T19:03:01.659Z,100049.28
2023-01-12T19:05:44.417Z,100048.52
2023-01-12T19:08:31.097Z,100049.00
2023-01-12T19:11:10.715Z,100050.71
2023-01-12T19:13:57.604Z,100050.52
2023-01-12T19:16:44.165Z,100051.51
2023-01-12T19:19:12.149Z,100051.36
2023-01-12T19:21:58.930Z,100052.44
2023-01-12T19:24:45.881Z,100054.76
2023-01-12T19:27:32.511Z,100046.69
2023-01-12T19:30:01.559Z,100045.79
2023-01-12T19:32:29.415Z,100045.80
2023-01-12T19:35:09.866Z,100046.54
2023-01-12T19:37:40.307Z,100042.01
2023-01-12T19:40:12.407Z,100040.89
2023-01-12T19:42:59.936Z,100037.63
2023-01-12T19:45:28.341Z,100037.59
2023-01-12T19:47:57.894Z,100034.70
2023-01-12T19:50:25.855Z,100033.77
2023-01-12T19:52:53.981Z,100028.33
2023-01-12T19:55:22.321Z,100028.70
2023-01-12T19:57:50.374Z,100026.18
2023-01-12T20:00:18.898Z,100023.16
2023-01-12T20:02:47.034Z,100025.62
2023-01-12T20:05:22.683Z,100020.97
2023-01-12T20:07:52.764Z,100015.87
2023-01-12T20:10:21.805Z,100015.95
2023-01-12T20:12:52.716Z,100010.67
2023-01-12T20:15:20.932Z,100011.73
2023-01-12T20:17:49.365Z,100007.80
2023-01-12T20:20:18.085Z,100004.02
2023-01-12T20:22:49.086Z,100009.27
2023-01-12T20:25:19.488Z,100005.70
2023-01-12T20:27:49.395Z,100007.36
2023-01-12T20:30:32.031Z,100002.56
2023-01-12T20:33:06.840Z,100009.55
2023-01-12T20:35:35.406Z,100009.59
2023-01-12T20:38:07.108Z,100007.75
2023-01-12T20:40:38.520Z,100006.80
2023-01-12T20:43:07.038Z,100009.20
2023-01-12T20:45:35.174Z,100006.36
2023-01-12T20:48:03.825Z,100004.98
2023-01-12T20:50:31.960Z,100003.13
2023-01-12T20:52:59.867Z,100002.20
2023-01-12T20:55:28.450Z,100003.52
2023-01-12T20:57:56.657Z,100003.64
2023-01-12T21:00:24.850Z,100004.80
2023-01-12T21:02:53.164Z,100002.19
2023-01-12T21:05:21.443Z,100002.94
2023-01-12T21:07:57.047Z,100002.41
2023-01-12T21:10:31.801Z,100002.80
2023-01-12T21:13:00.143Z,100004.98
2023-01-12T21:15:28.103Z,100002.48
2023-01-12T21:17:56.137Z,99998.71
2023-01-12T21:20:24.222Z,100000.20
2023-01-12T21:22:52.051Z,99999.73
2023-01-12T21:25:20.521Z,99997.89
2023-01-12T21:27:49.883Z,100000.14
2023-01-12T21:30:17.938Z,100003.97
2023-01-12T21:32:46.823Z,100005.48
2023-01-12T21:35:15.356Z,100004.73
2023-01-12T21:37:43.363Z,100002.33
2023-01-12T21:40:11.902Z,100001.61
2023-01-12T21:42:58.756Z,100001.19
2023-01-12T21:45:26.852Z,100000.36
2023-01-12T21:47:55.537Z,99996.74
2023-01-12T21:50:23.489Z,99997.73
2023-01-12T21:52:52.105Z,99996.17
2023-01-12T21:55:20.218Z,99998.16
2023-01-12T21:57:48.291Z,99999.05
2023-01-12T22:00:16.938Z,99992.02
2023-01-12T22:02:44.941Z,99991.23
2023-01-12T22:05:13.966Z,99990.98
2023-01-12T22:07:42.110Z,99991.23
2023-01-12T22:10:19.864Z,99991.67
2023-01-12T22:12:50.641Z,99994.20
2023-01-12T22:15:19.005Z,99992.05
2023-01-12T22:17:47.488Z,99991.67
2023-01-12T22:20:16.919Z,99990.33
2023-01-12T22:22:45.016Z,99986.89
2023-01-12T22:25:14.612Z,99986.44
2023-01-12T22:27:43.310Z,99983.09
2023-01-12T22:30:17.459Z,99981.02
2023-01-12T22:32:45.903Z,99978.59
2023-01-12T22:35:14.088Z,99973.70
2023-01-12T22:37:41.873Z,99972.49
2023-01-12T22:40:11.476Z,99975.50
2023-01-12T22:42:58.022Z,99973.61
2023-01-12T22:45:26.426Z,99969.38
2023-01-12T22:47:55.789Z,99968.95
2023-01-12T22:50:24.888Z,99961.18
2023-01-12T22:52:54.836Z,99959.75
2023-01-12T22:55:24.573Z,99954.30
2023-01-12T22:57:52.318Z,99956.63
2023-01-12T23:00:21.356Z,99960.39
2023-01-12T23:03:02.602Z,99955.79
2023-01-12T23:05:35.301Z,99955.58
2023-01-12T23:08:05.592Z,99953.90
2023-01-12T23:10:34.249Z,99951.23
2023-01-12T23:13:11.712Z,99950.23
2023-01-12T23:15:41.591Z,99954.95
2023-01-12T23:18:09.949Z,99954.52
2023-01-12T23:20:38.355Z,99951.70
2023-01-12T23:23:07.794Z,99950.11
2023-01-12T23:25:36.329Z,99949.95
2023-01-12T23:28:05.986Z,99946.67
2023-01-12T23:30:34.427Z,99943.44
2023-01-12T23:33:04.252Z,99947.04
2023-01-12T23:35:38.028Z,99944.66
2023-01-12T23:38:07.977Z,99943.30
2023-01-12T23:40:38.809Z,99937.02
2023-01-12T23:43:06.731Z,99933.40
2023-01-12T23:45:34.750Z,99930.70
2023-01-12T23:48:02.742Z,99931.14
2023-01-12T23:50:30.567Z,99935.57
2023-01-12T23:52:58.740Z,99945.56
2023-01-12T23:55:27.862Z,99942.80
2023-01-12T23:57:56.037Z,99944.27
